Time;durP1;ratioP1;P1;durP2;ratioP2;P2;SDS_P1;SDS_P2;PMS_P1;PMS_P2;Temp;Humidity;BMP_temperature;BMP_pressure;BME280_temperature;BME280_humidity;BME280_pressure;Samples;Min_cycle;Max_cycle;Signal;HPM_P1;HPM_P2
2021/01/23 00:00:16;;;;;;;15.30;10.57;;;3.50;1.00;;;;;;5075987;28;20188;-64
2021/01/23 00:02:42;;;;;;;14.07;9.02;;;3.50;1.00;;;;;;5075874;28;20193;-64
2021/01/23 00:05:08;;;;;;;18.27;10.93;;;3.50;1.00;;;;;;5075631;28;20183;-64
2021/01/23 00:07:33;;;;;;;17.10;11.20;;;3.60;1.00;;;;;;5075887;28;20208;-64
2021/01/23 00:09:59;;;;;;;15.90;10.40;;;3.60;1.00;;;;;;5075747;28;20511;-64
2021/01/23 00:12:24;;;;;;;24.33;11.03;;;3.40;1.00;;;;;;5075609;28;20181;-64
2021/01/23 00:14:50;;;;;;;18.63;11.13;;;3.40;1.00;;;;;;5075210;28;20543;-64
2021/01/23 00:17:16;;;;;;;23.30;12.37;;;3.50;1.00;;;;;;5075643;28;20177;-64
2021/01/23 00:19:42;;;;;;;21.90;11.20;;;3.40;1.00;;;;;;5075703;28;20419;-65
2021/01/23 00:22:07;;;;;;;18.50;12.32;;;3.50;1.00;;;;;;5075720;28;20424;-66
2021/01/23 00:24:33;;;;;;;15.30;9.87;;;3.60;1.00;;;;;;5075270;28;20195;-66
2021/01/23 00:26:59;;;;;;;21.80;11.03;;;3.40;1.00;;;;;;5075433;28;20535;-66
2021/01/23 00:29:24;;;;;;;23.10;11.03;;;3.40;1.00;;;;;;5074368;28;20514;-66
2021/01/23 00:31:50;;;;;;;16.87;10.90;;;3.50;1.00;;;;;;5074341;28;20181;-64
2021/01/23 00:34:15;;;;;;;18.40;12.97;;;3.50;1.00;;;;;;5074995;28;20287;-64
2021/01/23 00:36:41;;;;;;;22.20;12.03;;;3.40;1.00;;;;;;5074212;28;20177;-64
2021/01/23 00:39:07;;;;;;;30.10;15.60;;;3.50;1.00;;;;;;5075221;28;20176;-64
2021/01/23 00:41:33;;;;;;;16.27;10.20;;;3.60;1.00;;;;;;5075089;28;20184;-65
2021/01/23 00:43:59;;;;;;;18.67;11.88;;;3.60;1.00;;;;;;5074804;28;20918;-64
2021/01/23 00:46:24;;;;;;;18.47;11.17;;;3.50;1.00;;;;;;5075138;28;20184;-65
2021/01/23 00:48:50;;;;;;;18.60;11.50;;;3.50;1.00;;;;;;5075065;28;20621;-66
2021/01/23 00:51:16;;;;;;;16.43;10.47;;;3.40;1.00;;;;;;5074202;28;20484;-64
2021/01/23 00:53:41;;;;;;;23.27;12.50;;;3.40;1.00;;;;;;5074673;28;20213;-64
2021/01/23 00:56:07;;;;;;;16.17;11.27;;;3.40;1.00;;;;;;5074743;28;20194;-64
2021/01/23 00:58:33;;;;;;;15.97;10.37;;;3.50;1.00;;;;;;5074959;28;20434;-66
2021/01/23 01:00:58;;;;;;;19.23;11.37;;;3.40;1.00;;;;;;5074810;28;20584;-66
2021/01/23 01:03:24;;;;;;;18.43;13.30;;;3.20;1.00;;;;;;5074760;28;20680;-66
2021/01/23 01:05:49;;;;;;;17.50;10.90;;;3.30;1.00;;;;;;5074618;28;20217;-66
2021/01/23 01:08:15;;;;;;;23.53;12.77;;;3.30;1.00;;;;;;5074726;28;20253;-66
2021/01/23 01:10:45;;;;;;;19.07;11.33;;;3.20;1.00;;;;;;5073508;28;20192;-66
2021/01/23 01:13:15;;;;;;;19.90;11.50;;;3.20;1.00;;;;;;5074387;28;20214;-66
2021/01/23 01:15:41;;;;;;;24.35;12.55;;;3.10;1.00;;;;;;5074631;28;20212;-66
2021/01/23 01:18:08;;;;;;;41.80;22.60;;;2.90;1.00;;;;;;5074551;28;20784;-66
2021/01/23 01:20:34;;;;;;;30.20;17.02;;;3.00;1.00;;;;;;5074423;28;20173;-66
2021/01/23 01:23:00;;;;;;;26.97;16.40;;;3.10;1.00;;;;;;5074460;28;20575;-66
2021/01/23 01:25:26;;;;;;;21.90;13.40;;;3.10;1.00;;;;;;5074257;28;20435;-66
2021/01/23 01:27:52;;;;;;;23.15;13.13;;;3.10;1.00;;;;;;5074350;28;20607;-66
2021/01/23 01:30:18;;;;;;;29.43;14.00;;;3.20;1.00;;;;;;5074571;28;20172;-66
2021/01/23 01:32:43;;;;;;;26.80;15.48;;;3.20;1.00;;;;;;5074148;28;20185;-64
2021/01/23 01:35:09;;;;;;;18.70;13.73;;;3.20;1.00;;;;;;5074068;28;20186;-64
2021/01/23 01:37:35;;;;;;;20.57;12.70;;;3.10;1.00;;;;;;5074132;28;20275;-64
2021/01/23 01:40:01;;;;;;;30.43;14.97;;;3.00;1.00;;;;;;5074178;28;20192;-64
2021/01/23 01:42:26;;;;;;;19.40;12.07;;;3.10;1.00;;;;;;5073985;28;20182;-64
2021/01/23 01:44:52;;;;;;;23.97;13.97;;;3.10;1.00;;;;;;5073825;28;20419;-64
2021/01/23 01:47:18;;;;;;;26.13;13.03;;;3.10;1.00;;;;;;5074086;28;20177;-65
2021/01/23 01:49:43;;;;;;;25.67;14.57;;;3.10;1.00;;;;;;5073189;28;20443;-65
2021/01/23 01:52:10;;;;;;;23.40;15.13;;;3.10;1.00;;;;;;5073958;28;20172;-64
2021/01/23 01:54:36;;;;;;;19.98;13.82;;;3.10;1.00;;;;;;5073608;28;20625;-64
2021/01/23 01:57:01;;;;;;;26.95;14.30;;;3.20;1.00;;;;;;5072895;28;20191;-64
2021/01/23 01:59:27;;;;;;;22.17;14.43;;;3.10;1.00;;;;;;5073947;28;20176;-64
2021/01/23 02:02:03;;;;;;;29.73;14.93;;;3.20;1.00;;;;;;5073959;28;20188;-64
2021/01/23 02:04:43;;;;;;;22.60;13.65;;;3.20;1.00;;;;;;5073655;28;20180;-64
2021/01/23 02:07:12;;;;;;;21.85;12.20;;;3.30;1.00;;;;;;5074049;28;20190;-64
2021/01/23 02:10:12;;;;;;;25.95;15.82;;;3.30;1.00;;;;;;5073852;28;20191;-64
2021/01/23 02:13:14;;;;;;;26.50;15.30;;;3.40;1.00;;;;;;5073574;28;20268;-65
2021/01/23 02:15:45;;;;;;;21.10;14.10;;;3.50;1.00;;;;;;5073653;28;20220;-64
2021/01/23 02:18:12;;;;;;;24.23;14.25;;;3.50;1.00;;;;;;5073547;28;20198;-66
2021/01/23 02:20:41;;;;;;;25.65;14.85;;;3.40;1.00;;;;;;5074227;28;20181;-66
2021/01/23 02:23:23;;;;;;;25.10;15.10;;;3.50;1.00;;;;;;5073875;28;20194;-67
2021/01/23 02:26:19;;;;;;;23.23;15.38;;;3.60;1.00;;;;;;5072975;28;20473;-66
2021/01/23 02:28:57;;;;;;;23.05;14.45;;;3.50;1.00;;;;;;5073473;28;20276;-67
2021/01/23 02:31:26;;;;;;;24.25;14.88;;;3.70;1.00;;;;;;5074199;28;20192;-65
2021/01/23 02:33:53;;;;;;;23.05;14.65;;;3.70;1.00;;;;;;5073715;28;20209;-66
2021/01/23 02:36:21;;;;;;;30.60;15.32;;;3.50;1.00;;;;;;5072874;28;20180;-65
2021/01/23 02:38:48;;;;;;;26.27;14.57;;;3.30;1.00;;;;;;5073984;28;20181;-67
2021/01/23 02:41:15;;;;;;;29.98;15.02;;;3.30;1.00;;;;;;5073775;28;20230;-66
2021/01/23 02:43:45;;;;;;;28.45;16.33;;;3.50;1.00;;;;;;5073540;28;20177;-66
2021/01/23 02:46:12;;;;;;;28.60;15.10;;;3.50;1.00;;;;;;5073962;28;20203;-65
2021/01/23 02:48:38;;;;;;;32.58;16.10;;;3.40;1.00;;;;;;5073746;28;20185;-65
2021/01/23 02:51:12;;;;;;;32.42;16.77;;;3.50;1.00;;;;;;5073528;28;20177;-66
2021/01/23 02:53:39;;;;;;;24.75;15.73;;;3.40;1.00;;;;;;5073571;28;20219;-65
2021/01/23 02:56:18;;;;;;;26.42;16.98;;;3.50;1.00;;;;;;5072296;28;20180;-66
2021/01/23 02:58:45;;;;;;;25.63;16.08;;;3.60;1.00;;;;;;5073636;28;20617;-67
2021/01/23 03:01:12;;;;;;;28.52;17.30;;;3.60;1.00;;;;;;5073311;28;20177;-66
2021/01/23 03:03:38;;;;;;;28.63;16.48;;;3.70;1.00;;;;;;5073517;28;20344;-67
2021/01/23 03:06:05;;;;;;;25.33;13.90;;;3.70;1.00;;;;;;5072626;28;20579;-67
2021/01/23 03:08:31;;;;;;;30.25;17.20;;;3.60;1.00;;;;;;5073606;28;20698;-66
2021/01/23 03:10:57;;;;;;;28.08;16.85;;;3.70;1.00;;;;;;5073725;28;20206;-66
2021/01/23 03:13:23;;;;;;;23.10;14.67;;;3.70;1.00;;;;;;5074046;28;20649;-66
2021/01/23 03:15:49;;;;;;;31.50;15.80;;;3.80;1.00;;;;;;5077490;28;20188;-66
2021/01/23 03:18:15;;;;;;;27.93;15.00;;;3.60;1.00;;;;;;5077574;28;20433;-66
2021/01/23 03:20:40;;;;;;;22.77;14.70;;;3.80;1.00;;;;;;5077416;28;20423;-66
2021/01/23 03:23:06;;;;;;;25.70;14.90;;;3.70;1.00;;;;;;5077276;28;20515;-66
2021/01/23 03:25:32;;;;;;;27.77;15.97;;;3.70;1.00;;;;;;5077309;28;20203;-66
2021/01/23 03:27:58;;;;;;;30.38;15.73;;;3.60;1.00;;;;;;5077082;28;20271;-66
2021/01/23 03:30:25;;;;;;;27.98;16.23;;;3.70;1.00;;;;;;5076161;28;20176;-66
2021/01/23 03:32:52;;;;;;;28.05;16.48;;;3.80;1.00;;;;;;5077090;28;20230;-66
2021/01/23 03:35:18;;;;;;;26.42;15.38;;;3.70;1.00;;;;;;5076968;28;20191;-66
2021/01/23 03:37:44;;;;;;;28.40;16.33;;;3.70;1.00;;;;;;5077048;28;20234;-66
2021/01/23 03:40:10;;;;;;;29.60;17.37;;;3.60;1.00;;;;;;5077103;28;20626;-66
2021/01/23 03:42:36;;;;;;;28.85;15.23;;;3.60;1.00;;;;;;5077010;28;20422;-66
2021/01/23 03:45:03;;;;;;;24.02;15.95;;;3.50;1.00;;;;;;5076605;28;20186;-66
2021/01/23 03:47:29;;;;;;;29.67;15.73;;;3.60;1.00;;;;;;5076781;28;20252;-66
2021/01/23 03:49:54;;;;;;;31.33;15.90;;;3.80;1.00;;;;;;5076966;28;20272;-66
2021/01/23 03:52:20;;;;;;;27.53;15.97;;;3.90;1.00;;;;;;5076713;28;20257;-66
2021/01/23 03:54:45;;;;;;;27.43;15.20;;;4.10;1.00;;;;;;5076464;28;20212;-66
2021/01/23 03:57:11;;;;;;;28.40;16.60;;;4.20;1.00;;;;;;5076808;28;20188;-67
2021/01/23 03:59:37;;;;;;;27.83;15.35;;;4.10;99.90;;;;;;5076833;28;20181;-67
2021/01/23 04:02:04;;;;;;;28.60;15.53;;;4.00;99.90;;;;;;5076633;28;20206;-67
2021/01/23 04:04:29;;;;;;;33.50;17.42;;;3.80;99.90;;;;;;5076497;28;20423;-66
2021/01/23 04:06:56;;;;;;;32.30;19.17;;;3.60;99.90;;;;;;5076474;28;20183;-66
2021/01/23 04:09:21;;;;;;;27.85;16.50;;;3.50;99.90;;;;;;5076602;28;20177;-66
2021/01/23 04:11:47;;;;;;;27.67;16.37;;;3.60;1.00;;;;;;5076489;28;20180;-66
2021/01/23 04:14:12;;;;;;;28.27;15.83;;;3.70;1.00;;;;;;5076373;28;20246;-66
2021/01/23 04:16:38;;;;;;;28.80;16.57;;;3.80;1.00;;;;;;5076746;28;20177;-66
2021/01/23 04:19:05;;;;;;;26.17;16.20;;;3.80;1.00;;;;;;5076535;28;20181;-66
2021/01/23 04:21:31;;;;;;;27.55;17.38;;;3.80;1.00;;;;;;5076441;28;20185;-66
2021/01/23 04:23:56;;;;;;;31.48;17.60;;;3.80;1.00;;;;;;5075990;28;20187;-66
2021/01/23 04:26:22;;;;;;;28.87;16.20;;;3.90;1.00;;;;;;5075032;28;20180;-66
2021/01/23 04:28:48;;;;;;;26.63;16.00;;;4.00;1.00;;;;;;5076260;28;20184;-66
2021/01/23 04:31:13;;;;;;;34.10;20.07;;;4.10;99.90;;;;;;5076166;28;20261;-66
2021/01/23 04:33:39;;;;;;;31.37;17.97;;;4.00;99.90;;;;;;5075852;28;20411;-66
2021/01/23 04:36:05;;;;;;;29.33;17.20;;;4.20;99.90;;;;;;5076103;28;20621;-66
2021/01/23 04:38:32;;;;;;;32.10;16.13;;;4.10;99.90;;;;;;5075995;28;20259;-66
2021/01/23 04:40:58;;;;;;;30.67;16.10;;;4.10;99.90;;;;;;5074934;28;20234;-66
2021/01/23 04:43:26;;;;;;;30.38;16.85;;;4.20;99.90;;;;;;5074457;28;20254;-66
2021/01/23 04:45:53;;;;;;;32.70;18.27;;;4.10;99.90;;;;;;5074517;28;20625;-66
2021/01/23 04:48:19;;;;;;;37.40;17.90;;;4.00;99.90;;;;;;5074809;28;20252;-66
2021/01/23 04:50:45;;;;;;;33.27;17.07;;;3.90;99.90;;;;;;5075654;28;20617;-66
2021/01/23 04:53:14;;;;;;;36.75;19.05;;;3.80;99.90;;;;;;5075137;28;20474;-66
2021/01/23 04:55:42;;;;;;;28.60;15.95;;;3.90;99.90;;;;;;5075604;28;20184;-66
2021/01/23 04:58:07;;;;;;;29.98;15.90;;;3.80;99.90;;;;;;5074329;28;20554;-66
2021/01/23 05:00:33;;;;;;;30.50;17.53;;;3.90;99.90;;;;;;5075870;28;20168;-66
2021/01/23 05:03:01;;;;;;;27.60;16.40;;;3.70;99.90;;;;;;5084723;28;20264;-67
2021/01/23 05:05:27;;;;;;;33.92;17.67;;;3.70;99.90;;;;;;5075772;28;20198;-66
2021/01/23 05:07:53;;;;;;;32.10;18.27;;;3.80;99.90;;;;;;5074803;28;20176;-66
2021/01/23 05:10:23;;;;;;;25.30;16.30;;;3.70;99.90;;;;;;5076263;28;20264;-66
2021/01/23 05:12:50;;;;;;;32.67;17.80;;;3.70;99.90;;;;;;5076909;28;20169;-65
2021/01/23 05:15:24;;;;;;;33.58;17.75;;;3.70;99.90;;;;;;5076907;28;20185;-65
2021/01/23 05:17:52;;;;;;;28.00;17.10;;;3.60;99.90;;;;;;5075592;28;20270;-65
2021/01/23 05:20:42;;;;;;;29.25;16.63;;;3.40;99.90;;;;;;5077419;28;20180;-65
2021/01/23 05:23:14;;;;;;;25.05;15.93;;;3.40;99.90;;;;;;5078191;28;20244;-66
2021/01/23 05:25:42;;;;;;;27.88;17.27;;;3.40;1.00;;;;;;5076382;28;20219;-65
2021/01/23 05:28:10;;;;;;;24.80;16.00;;;3.40;1.00;;;;;;5080096;28;20180;-66
2021/01/23 05:30:46;;;;;;;30.33;17.05;;;3.40;1.00;;;;;;5076332;28;20173;-66
2021/01/23 05:33:16;;;;;;;29.67;16.45;;;3.40;1.00;;;;;;5078819;28;20203;-67
2021/01/23 05:35:44;;;;;;;32.08;17.80;;;3.30;1.00;;;;;;5075970;28;20183;-66
2021/01/23 05:38:24;;;;;;;30.63;15.65;;;3.30;1.00;;;;;;5074765;28;20652;-66
2021/01/23 05:40:54;;;;;;;30.15;17.58;;;3.30;1.00;;;;;;5074731;28;20184;-66
2021/01/23 05:43:29;;;;;;;29.20;16.02;;;3.20;1.00;;;;;;5074624;28;20246;-66
2021/01/23 05:45:55;;;;;;;27.27;15.75;;;3.30;1.00;;;;;;5074885;28;20229;-66
2021/01/23 05:48:21;;;;;;;41.13;19.30;;;3.10;1.00;;;;;;5074667;28;20180;-67
2021/01/23 05:50:47;;;;;;;30.75;16.80;;;3.00;1.00;;;;;;5075080;28;20188;-66
2021/01/23 05:53:12;;;;;;;32.47;18.77;;;3.00;1.00;;;;;;5073315;28;20208;-66
2021/01/23 05:55:38;;;;;;;34.07;20.53;;;2.80;1.00;;;;;;5074341;28;20180;-66
2021/01/23 05:58:04;;;;;;;28.37;18.10;;;2.80;1.00;;;;;;5074329;28;20578;-66
2021/01/23 06:00:30;;;;;;;29.98;16.23;;;2.80;1.00;;;;;;5074403;28;20180;-66
2021/01/23 06:02:55;;;;;;;28.67;15.77;;;2.70;1.00;;;;;;5074172;28;20188;-66
2021/01/23 06:05:22;;;;;;;33.67;17.83;;;2.80;1.00;;;;;;5073902;28;20465;-66
2021/01/23 06:07:48;;;;;;;32.55;18.08;;;3.10;1.00;;;;;;5074252;28;20207;-66
2021/01/23 06:10:23;;;;;;;29.95;18.05;;;3.20;1.00;;;;;;5074160;28;20181;-66
2021/01/23 06:12:55;;;;;;;33.80;17.65;;;3.10;1.00;;;;;;5074234;28;20172;-67
2021/01/23 06:15:39;;;;;;;34.47;17.08;;;2.90;1.00;;;;;;5074153;28;20636;-66
2021/01/23 06:18:26;;;;;;;30.75;16.35;;;3.00;1.00;;;;;;5074620;28;20172;-66
2021/01/23 06:20:54;;;;;;;32.80;18.02;;;2.90;1.00;;;;;;5073703;28;20275;-67
2021/01/23 06:23:23;;;;;;;32.97;16.38;;;2.70;1.00;;;;;;5073966;28;20237;-66
2021/01/23 06:25:48;;;;;;;34.92;16.33;;;2.60;1.00;;;;;;5074110;28;20177;-67
2021/01/23 06:28:37;;;;;;;33.53;18.70;;;2.60;1.00;;;;;;5073010;28;20177;-67
2021/01/23 06:31:22;;;;;;;25.25;15.45;;;2.50;1.00;;;;;;5073889;28;20189;-67
2021/01/23 06:33:48;;;;;;;29.83;16.33;;;2.50;1.00;;;;;;5073768;28;20219;-66
2021/01/23 06:36:17;;;;;;;36.97;17.98;;;2.60;1.00;;;;;;5072915;28;20183;-67
2021/01/23 06:39:19;;;;;;;33.50;18.65;;;2.60;1.00;;;;;;5073972;28;20173;-67
2021/01/23 06:41:44;;;;;;;34.33;16.52;;;2.60;1.00;;;;;;4992668;28;20190;-67
2021/01/23 06:44:15;;;;;;;30.63;18.47;;;2.50;1.00;;;;;;5068615;28;20203;-66
2021/01/23 06:46:46;;;;;;;30.42;16.85;;;2.50;1.00;;;;;;5074079;28;20188;-66
2021/01/23 06:49:14;;;;;;;31.55;16.55;;;2.50;1.00;;;;;;5076022;28;20185;-66
2021/01/23 06:51:43;;;;;;;31.58;17.35;;;2.50;1.00;;;;;;5077964;28;20212;-66
2021/01/23 06:54:19;;;;;;;28.35;17.67;;;2.50;1.00;;;;;;5077959;28;20520;-66
2021/01/23 06:56:49;;;;;;;29.00;16.23;;;2.60;1.00;;;;;;5078022;28;20184;-64
2021/01/23 06:59:27;;;;;;;33.78;18.15;;;2.60;1.00;;;;;;5076858;28;20172;-64
2021/01/23 07:02:07;;;;;;;31.92;17.95;;;2.70;1.00;;;;;;5076549;28;20184;-66
2021/01/23 07:04:43;;;;;;;40.00;21.13;;;2.60;1.00;;;;;;5077495;28;20276;-66
2021/01/23 07:07:09;;;;;;;30.58;16.38;;;2.60;1.00;;;;;;5077749;28;20172;-66
2021/01/23 07:09:55;;;;;;;34.53;17.87;;;2.50;1.00;;;;;;5077766;28;20557;-66
2021/01/23 07:12:41;;;;;;;37.67;16.77;;;2.70;1.00;;;;;;5077495;28;20422;-66
2021/01/23 07:15:14;;;;;;;32.72;18.30;;;2.60;1.00;;;;;;5076180;28;20204;-66
2021/01/23 07:17:42;;;;;;;34.70;17.40;;;2.60;1.00;;;;;;5077169;28;20464;-66
2021/01/23 07:20:09;;;;;;;34.78;16.27;;;2.60;1.00;;;;;;5077378;28;20487;-66
2021/01/23 07:22:36;;;;;;;35.35;19.52;;;2.60;1.00;;;;;;5077299;28;20176;-67
2021/01/23 07:25:10;;;;;;;32.13;18.00;;;2.70;1.00;;;;;;5075863;28;20719;-67
2021/01/23 07:27:36;;;;;;;33.55;17.17;;;2.70;1.00;;;;;;5077319;28;20176;-65
2021/01/23 07:30:22;;;;;;;38.35;20.52;;;2.70;1.00;;;;;;5076196;28;20635;-65
2021/01/23 07:32:48;;;;;;;31.38;17.40;;;2.70;1.00;;;;;;5092191;28;20216;-66
2021/01/23 07:35:15;;;;;;;34.03;19.80;;;2.60;1.00;;;;;;5072584;28;20250;-67
2021/01/23 07:37:53;;;;;;;33.63;18.45;;;2.60;1.00;;;;;;5076596;28;20660;-66
2021/01/23 07:40:27;;;;;;;32.20;18.60;;;2.60;1.00;;;;;;5076883;28;20211;-64
2021/01/23 07:42:56;;;;;;;35.33;18.90;;;2.50;1.00;;;;;;5077036;28;20691;-66
2021/01/23 07:45:21;;;;;;;35.05;19.50;;;2.60;1.00;;;;;;5075367;28;20660;-67
2021/01/23 07:47:57;;;;;;;37.20;18.40;;;2.50;1.00;;;;;;5075923;28;20180;-64
2021/01/23 07:50:24;;;;;;;35.63;18.67;;;2.60;1.00;;;;;;5076517;28;20184;-66
2021/01/23 07:52:50;;;;;;;30.38;18.55;;;2.60;1.00;;;;;;5076503;28;20490;-67
2021/01/23 07:55:15;;;;;;;33.47;17.80;;;2.70;1.00;;;;;;5070047;28;20235;-67
2021/01/23 07:57:41;;;;;;;33.73;18.90;;;2.70;1.00;;;;;;5066458;28;20617;-67
2021/01/23 08:00:08;;;;;;;35.97;19.30;;;2.70;1.00;;;;;;5066879;28;20207;-66
2021/01/23 08:02:55;;;;;;;36.38;18.42;;;2.60;1.00;;;;;;5067186;28;20641;-66
2021/01/23 08:05:21;;;;;;;30.48;15.55;;;2.60;1.00;;;;;;5064387;28;20267;-66
2021/01/23 08:07:47;;;;;;;31.02;17.95;;;2.60;1.00;;;;;;5067078;28;20185;-66
2021/01/23 08:10:18;;;;;;;30.50;17.30;;;2.60;1.00;;;;;;5065057;28;20173;-66
2021/01/23 08:12:56;;;;;;;32.20;17.85;;;2.80;1.00;;;;;;5065956;28;20758;-67
2021/01/23 08:15:28;;;;;;;33.67;17.65;;;3.10;1.00;;;;;;5065675;28;20298;-66
2021/01/23 08:17:55;;;;;;;32.35;17.73;;;3.30;1.00;;;;;;5064745;28;20169;-67
2021/01/23 08:20:32;;;;;;;44.83;19.80;;;3.40;1.00;;;;;;5065430;28;20185;-67
2021/01/23 08:23:11;;;;;;;39.70;21.17;;;3.20;1.00;;;;;;5067363;28;20510;-66
2021/01/23 08:25:38;;;;;;;39.17;20.10;;;3.20;1.00;;;;;;5065688;28;20205;-66
2021/01/23 08:28:06;;;;;;;41.15;20.92;;;3.10;1.00;;;;;;5065652;28;20198;-66
2021/01/23 08:30:32;;;;;;;36.75;20.70;;;3.10;1.00;;;;;;5069792;28;20169;-64
2021/01/23 08:32:58;;;;;;;36.00;17.92;;;3.20;1.00;;;;;;5073258;28;20287;-65
2021/01/23 08:35:25;;;;;;;31.40;16.70;;;3.30;1.00;;;;;;5056956;28;20268;-65
2021/01/23 08:37:51;;;;;;;36.90;18.52;;;3.50;1.00;;;;;;5072551;28;20922;-65
2021/01/23 08:40:23;;;;;;;51.28;26.80;;;3.50;1.00;;;;;;5069500;28;20189;-66
2021/01/23 08:42:49;;;;;;;34.13;19.48;;;3.70;1.00;;;;;;5073520;28;20257;-66
2021/01/23 08:45:19;;;;;;;45.13;23.88;;;3.80;1.00;;;;;;5075831;28;20183;-66
2021/01/23 08:47:45;;;;;;;38.65;19.67;;;3.90;1.00;;;;;;5075684;28;20177;-66
2021/01/23 08:50:11;;;;;;;39.73;19.47;;;3.80;99.90;;;;;;5075693;28;20180;-66
2021/01/23 08:52:37;;;;;;;38.58;19.10;;;3.80;99.90;;;;;;5075510;28;20503;-66
2021/01/23 08:55:04;;;;;;;34.87;18.83;;;3.80;99.90;;;;;;5073684;28;20679;-66
2021/01/23 08:57:29;;;;;;;32.58;18.02;;;3.80;99.90;;;;;;5073377;28;20201;-66
2021/01/23 08:59:55;;;;;;;29.60;18.40;;;3.90;99.90;;;;;;5073789;28;20307;-66
2021/01/23 09:02:20;;;;;;;30.80;18.50;;;4.10;99.90;;;;;;5074618;28;20192;-66
2021/01/23 09:04:47;;;;;;;41.97;19.20;;;4.40;99.90;;;;;;5074388;28;20181;-65
2021/01/23 09:07:12;;;;;;;37.22;19.77;;;4.40;99.90;;;;;;5074568;28;20181;-66
2021/01/23 09:09:38;;;;;;;34.57;18.70;;;3.90;99.90;;;;;;5074740;28;20207;-67
2021/01/23 09:12:04;;;;;;;36.87;20.17;;;3.80;99.90;;;;;;5073648;28;20250;-67
2021/01/23 09:14:30;;;;;;;35.13;18.95;;;3.80;99.90;;;;;;5075533;28;20489;-66
2021/01/23 09:16:56;;;;;;;37.57;21.17;;;4.10;99.90;;;;;;5073403;28;20192;-65
2021/01/23 09:19:22;;;;;;;57.97;30.85;;;4.20;99.90;;;;;;5072186;28;20188;-65
2021/01/23 09:21:48;;;;;;;34.92;20.30;;;4.10;99.90;;;;;;5073813;28;20185;-66
2021/01/23 09:24:15;;;;;;;41.23;19.00;;;3.80;31.30;;;;;;5073913;28;20566;-66
2021/01/23 09:26:41;;;;;;;30.15;17.50;;;3.80;99.90;;;;;;5073801;28;20435;-66
2021/01/23 09:29:07;;;;;;;31.10;17.60;;;3.70;99.90;;;;;;5073188;28;20211;-63
2021/01/23 09:31:33;;;;;;;35.40;19.47;;;3.70;99.90;;;;;;5074074;28;20441;-63
2021/01/23 09:33:58;;;;;;;33.57;18.10;;;3.70;99.90;;;;;;5074015;28;20649;-64
2021/01/23 09:36:25;;;;;;;28.67;17.60;;;3.70;99.90;;;;;;5073574;28;20309;-67
2021/01/23 09:38:51;;;;;;;33.95;18.50;;;3.80;99.90;;;;;;5074253;28;20185;-68
2021/01/23 09:41:17;;;;;;;33.00;18.57;;;3.80;99.90;;;;;;5074145;28;20631;-68
2021/01/23 09:43:42;;;;;;;32.07;18.67;;;3.70;99.90;;;;;;5073676;28;20173;-68
2021/01/23 09:46:08;;;;;;;33.40;19.90;;;3.80;99.90;;;;;;5073650;28;20184;-64
2021/01/23 09:48:33;;;;;;;34.33;18.70;;;3.80;99.90;;;;;;5072545;28;20233;-64
2021/01/23 09:50:59;;;;;;;29.90;18.60;;;4.00;99.90;;;;;;5073338;28;20265;-68
2021/01/23 09:53:24;;;;;;;30.97;19.00;;;4.00;99.90;;;;;;5072776;28;20284;-65
2021/01/23 09:55:50;;;;;;;37.40;20.23;;;4.00;99.90;;;;;;5073028;28;20200;-65
2021/01/23 09:58:17;;;;;;;33.00;17.77;;;4.10;99.90;;;;;;5073123;28;20635;-66
2021/01/23 10:00:42;;;;;;;30.13;17.92;;;4.10;99.90;;;;;;5073526;28;20164;-65
2021/01/23 10:03:08;;;;;;;28.90;17.10;;;4.10;99.90;;;;;;5072699;28;20534;-65
2021/01/23 10:05:33;;;;;;;39.70;18.33;;;4.10;99.90;;;;;;5074109;28;20479;-66
2021/01/23 10:07:59;;;;;;;33.20;18.43;;;4.00;99.90;;;;;;5073856;28;20559;-68
2021/01/23 10:10:25;;;;;;;35.40;20.03;;;3.90;99.90;;;;;;5073514;28;20177;-70
2021/01/23 10:12:51;;;;;;;27.33;17.20;;;4.00;99.90;;;;;;5073192;28;20564;-66
2021/01/23 10:15:17;;;;;;;34.65;19.33;;;4.00;99.90;;;;;;5072833;28;20954;-66
2021/01/23 10:17:45;;;;;;;36.80;20.57;;;4.10;99.90;;;;;;5071521;28;20181;-65
2021/01/23 10:20:11;;;;;;;33.15;17.90;;;4.30;99.90;;;;;;5073041;28;20480;-69
2021/01/23 10:22:37;;;;;;;50.83;27.73;;;4.40;99.90;;;;;;5080566;28;20180;-68
2021/01/23 10:25:04;;;;;;;37.57;22.10;;;4.40;99.90;;;;;;5072851;28;20426;-68
2021/01/23 10:27:30;;;;;;;35.45;19.35;;;4.60;99.90;;;;;;5072278;28;20181;-63
2021/01/23 10:29:55;;;;;;;30.20;17.73;;;4.70;99.90;;;;;;5073438;28;20616;-64
2021/01/23 10:32:21;;;;;;;33.40;18.17;;;4.70;50.10;;;;;;5072511;28;20242;-65
2021/01/23 10:34:46;;;;;;;31.87;18.97;;;4.80;1.00;;;;;;5073070;28;20541;-66
2021/01/23 10:37:12;;;;;;;37.80;18.33;;;4.70;1.00;;;;;;5073103;28;20177;-68
2021/01/23 10:39:38;;;;;;;29.23;17.20;;;4.80;1.00;;;;;;5073399;28;20184;-66
2021/01/23 10:42:04;;;;;;;37.20;19.03;;;4.90;1.00;;;;;;5072592;28;20430;-67
2021/01/23 10:44:29;;;;;;;44.30;22.10;;;5.00;1.00;;;;;;5072981;28;20191;-67
2021/01/23 10:46:55;;;;;;;29.57;18.13;;;5.20;99.90;;;;;;5072964;28;20186;-67
2021/01/23 10:49:21;;;;;;;29.80;17.60;;;5.30;99.90;;;;;;5072800;28;20318;-67
2021/01/23 10:51:48;;;;;;;26.60;16.63;;;5.30;1.00;;;;;;5072802;28;20259;-66
2021/01/23 10:54:13;;;;;;;30.85;16.63;;;5.50;1.00;;;;;;5072475;28;20648;-66
2021/01/23 10:56:39;;;;;;;27.30;17.23;;;5.40;58.20;;;;;;5072716;28;20190;-65
2021/01/23 10:59:04;;;;;;;29.20;17.20;;;5.30;34.70;;;;;;5072659;28;20470;-66
2021/01/23 11:01:30;;;;;;;28.17;16.17;;;5.40;99.90;;;;;;5072828;28;20188;-66
2021/01/23 11:03:57;;;;;;;26.23;16.33;;;5.30;99.90;;;;;;5072611;28;20617;-65
2021/01/23 11:06:23;;;;;;;26.48;17.52;;;5.40;99.90;;;;;;5072838;28;20503;-66
2021/01/23 11:08:48;;;;;;;29.20;17.23;;;5.40;99.90;;;;;;5072882;28;20636;-67
2021/01/23 11:11:14;;;;;;;30.77;17.33;;;5.30;60.40;;;;;;5072897;28;20212;-65
2021/01/23 11:13:40;;;;;;;31.00;15.80;;;5.30;99.90;;;;;;5072783;28;20240;-62
2021/01/23 11:16:05;;;;;;;26.50;16.30;;;5.40;1.00;;;;;;5072846;28;20627;-69
2021/01/23 11:18:31;;;;;;;23.73;15.33;;;5.40;1.00;;;;;;5072753;28;20609;-67
2021/01/23 11:20:56;;;;;;;30.67;16.97;;;5.30;99.90;;;;;;5071694;28;20176;-69
2021/01/23 11:23:22;;;;;;;26.63;14.13;;;5.40;99.90;;;;;;5085854;28;20181;-67
2021/01/23 11:25:47;;;;;;;27.40;16.17;;;5.50;99.90;;;;;;5071456;28;20275;-67
2021/01/23 11:28:13;;;;;;;24.20;14.03;;;5.70;99.90;;;;;;5072908;28;20245;-66
2021/01/23 11:30:38;;;;;;;29.83;16.60;;;5.90;99.90;;;;;;5072578;28;20212;-65
2021/01/23 11:33:04;;;;;;;29.33;14.73;;;6.00;1.00;;;;;;5070989;28;20215;-64
2021/01/23 11:35:30;;;;;;;26.23;16.83;;;6.10;99.90;;;;;;5075241;28;20254;-64
2021/01/23 11:37:55;;;;;;;24.13;14.20;;;6.10;1.00;;;;;;5076171;28;20898;-65
2021/01/23 11:40:21;;;;;;;26.30;17.00;;;6.00;1.00;;;;;;5075783;28;20177;-65
2021/01/23 11:42:47;;;;;;;32.97;16.80;;;6.20;1.00;;;;;;5075915;28;20214;-66
2021/01/23 11:45:13;;;;;;;40.17;22.33;;;6.50;99.90;;;;;;5074526;28;20240;-65
2021/01/23 11:47:39;;;;;;;21.50;13.15;;;6.70;1.00;;;;;;5074746;28;20648;-62
2021/01/23 11:50:05;;;;;;;23.97;13.53;;;6.50;1.00;;;;;;5075031;28;20176;-64
2021/01/23 11:52:31;;;;;;;21.60;12.40;;;6.60;12.70;;;;;;5076034;28;20207;-65
2021/01/23 11:54:56;;;;;;;24.67;13.67;;;6.70;1.00;;;;;;5075727;28;20649;-66
2021/01/23 11:57:22;;;;;;;17.57;11.07;;;6.80;1.00;;;;;;5075713;28;20419;-66
2021/01/23 11:59:47;;;;;;;18.83;12.20;;;7.10;99.90;;;;;;5075732;28;20177;-65
2021/01/23 12:02:13;;;;;;;24.13;12.13;;;7.30;1.00;;;;;;5075727;28;20226;-66
2021/01/23 12:04:39;;;;;;;16.00;10.40;;;7.30;1.00;;;;;;5075854;28;20197;-65
2021/01/23 12:07:04;;;;;;;16.47;10.10;;;7.30;1.00;;;;;;5076168;28;20215;-67
2021/01/23 12:09:30;;;;;;;15.40;8.73;;;7.20;99.90;;;;;;5075970;28;20269;-67
2021/01/23 12:11:56;;;;;;;15.30;8.90;;;7.30;1.00;;;;;;5074747;28;20200;-65
2021/01/23 12:14:22;;;;;;;12.20;8.83;;;7.10;1.00;;;;;;5075368;28;20467;-66
2021/01/23 12:16:47;;;;;;;11.93;8.88;;;6.90;1.00;;;;;;5075556;28;20169;-63
2021/01/23 12:19:13;;;;;;;14.80;9.10;;;6.80;1.00;;;;;;5075257;28;20196;-64
2021/01/23 12:21:39;;;;;;;13.47;7.87;;;7.00;1.00;;;;;;5075374;28;20173;-66
2021/01/23 12:24:05;;;;;;;16.58;9.38;;;7.30;1.00;;;;;;5075181;28;20487;-64
2021/01/23 12:26:31;;;;;;;14.53;8.27;;;7.40;1.00;;;;;;5069825;28;20193;-66
2021/01/23 12:28:56;;;;;;;11.10;8.37;;;7.30;1.00;;;;;;5073058;28;20498;-66
2021/01/23 12:31:22;;;;;;;17.33;9.23;;;7.30;1.00;;;;;;5074336;28;20457;-66
2021/01/23 12:33:47;;;;;;;11.63;7.60;;;7.20;1.00;;;;;;5075431;28;20606;-67
2021/01/23 12:36:13;;;;;;;16.17;7.83;;;7.20;1.00;;;;;;5074097;28;20598;-68
2021/01/23 12:38:42;;;;;;;11.63;8.67;;;7.50;99.90;;;;;;5072386;28;20246;-68
2021/01/23 12:41:08;;;;;;;16.00;9.60;;;7.30;1.00;;;;;;5064027;28;20184;-67
2021/01/23 12:43:34;;;;;;;11.87;8.03;;;7.40;1.00;;;;;;5073750;28;20177;-67
2021/01/23 12:46:00;;;;;;;11.87;7.33;;;7.40;99.90;;;;;;5074090;28;20504;-68
2021/01/23 12:48:25;;;;;;;14.10;8.00;;;7.40;1.00;;;;;;5075023;28;20211;-68